createdAt,value
2023-09-06T00:00:01.716Z,0
2023-09-06T00:16:01.526Z,0
2023-09-06T00:31:01.888Z,0
2023-09-06T00:46:01.586Z,0
2023-09-06T01:00:01.677Z,0
2023-09-06T01:16:01.624Z,0
2023-09-06T01:31:01.789Z,0
2023-09-06T01:46:01.736Z,0
2023-09-06T02:00:01.667Z,0
2023-09-06T02:16:01.914Z,0
2023-09-06T02:31:01.820Z,0
2023-09-06T02:46:43.169Z,0
2023-09-06T03:00:01.649Z,0
2023-09-06T03:16:01.830Z,0
2023-09-06T03:31:01.911Z,0
2023-09-06T03:46:01.813Z,0
2023-09-06T04:00:02.015Z,0
2023-09-06T04:16:02.037Z,0
2023-09-06T04:31:02.162Z,0
2023-09-06T04:46:02.372Z,6
2023-09-06T05:00:02.306Z,21
2023-09-06T05:16:02.249Z,46
2023-09-06T05:31:02.323Z,81
2023-09-06T05:46:02.348Z,120
2023-09-06T06:00:02.294Z,159
2023-09-06T06:16:02.336Z,195
2023-09-06T06:31:02.576Z,239
2023-09-06T06:46:02.621Z,284
2023-09-06T07:00:02.692Z,325
2023-09-06T07:16:04.451Z,367
2023-09-06T07:31:02.860Z,409
2023-09-06T07:46:02.625Z,446
2023-09-06T08:00:02.515Z,484
2023-09-06T08:16:04.303Z,519
2023-09-06T08:31:03.504Z,553
2023-09-06T08:46:02.988Z,582
2023-09-06T09:00:04.347Z,609
2023-09-06T09:16:05.579Z,634
2023-09-06T09:31:02.891Z,658
2023-09-06T09:46:02.855Z,677
2023-09-06T10:00:02.866Z,693
2023-09-06T10:16:03.139Z,706
2023-09-06T10:31:03.007Z,716
2023-09-06T10:46:03.014Z,723
2023-09-06T11:00:03.011Z,725
2023-09-06T11:16:03.039Z,726
2023-09-06T11:31:03.311Z,725
2023-09-06T11:46:03.230Z,720
2023-09-06T12:00:04.769Z,713
2023-09-06T12:16:03.189Z,702
2023-09-06T12:31:07.758Z,688
2023-09-06T12:46:03.183Z,670
2023-09-06T13:00:03.258Z,650
2023-09-06T13:16:03.242Z,628
2023-09-06T13:31:03.477Z,599
2023-09-06T13:46:07.703Z,571
2023-09-06T14:00:00.645Z,540
2023-09-06T14:16:03.381Z,507
2023-09-06T14:31:04.895Z,469
2023-09-06T14:46:03.433Z,431
2023-09-06T15:00:03.591Z,394
2023-09-06T15:16:03.433Z,353
2023-09-06T15:31:03.614Z,310
2023-09-06T15:46:03.703Z,267
2023-09-06T16:00:12.811Z,220
2023-09-06T16:16:03.625Z,170
2023-09-06T16:31:10.144Z,115
2023-09-06T16:46:04.035Z,57
2023-09-06T17:00:03.683Z,22
2023-09-06T17:16:03.837Z,15
2023-09-06T17:31:03.748Z,8
2023-09-06T17:46:04.070Z,0
2023-09-06T18:00:03.812Z,0
2023-09-06T18:16:03.952Z,0
2023-09-06T18:31:04.049Z,0
2023-09-06T18:46:04.229Z,0
2023-09-06T19:00:03.951Z,0
2023-09-06T19:16:04.347Z,0
2023-09-06T19:31:04.054Z,0
2023-09-06T19:46:04.120Z,0
2023-09-06T20:00:04.655Z,0
2023-09-06T20:16:04.736Z,0
2023-09-06T20:31:04.185Z,0
2023-09-06T20:46:04.890Z,0
2023-09-06T21:00:04.185Z,0
2023-09-06T21:16:04.252Z,0
2023-09-06T21:31:04.303Z,0
2023-09-06T21:46:04.307Z,0
2023-09-06T22:00:04.373Z,0
2023-09-06T22:16:04.320Z,0
2023-09-06T22:31:04.608Z,0
2023-09-06T22:46:04.719Z,0
2023-09-06T23:00:04.559Z,0
2023-09-06T23:16:04.532Z,0
2023-09-06T23:31:04.581Z,0
2023-09-06T23:46:04.749Z,0
